Time;durP1;ratioP1;P1;durP2;ratioP2;P2;SDS_P1;SDS_P2;PMS_P1;PMS_P2;Temp;Humidity;BMP_temperature;BMP_pressure;BME280_temperature;BME280_humidity;BME280_pressure;Samples;Min_cycle;Max_cycle;Signal;HPM_P1;HPM_P2
2022/07/14 00:01:07;;;;;;;2.60;2.30;;;23.10;71.50;;;;;;5006211;28;20203;-60
2022/07/14 00:03:33;;;;;;;2.13;1.90;;;23.10;72.10;;;;;;5010949;28;20738;-60
2022/07/14 00:05:59;;;;;;;2.20;1.90;;;23.10;72.30;;;;;;5001570;28;20203;-59
2022/07/14 00:08:24;;;;;;;1.70;1.60;;;23.00;72.40;;;;;;4999718;28;20190;-60
2022/07/14 00:10:50;;;;;;;2.63;2.43;;;23.10;72.50;;;;;;5001341;28;20197;-60
2022/07/14 00:13:16;;;;;;;2.33;2.20;;;23.10;72.70;;;;;;5004877;28;20656;-60
2022/07/14 00:15:42;;;;;;;2.43;2.27;;;23.00;72.90;;;;;;5002406;28;20214;-60
2022/07/14 00:18:08;;;;;;;2.40;2.20;;;23.00;73.50;;;;;;5010386;28;20492;-61
2022/07/14 00:20:34;;;;;;;2.73;2.20;;;22.90;74.00;;;;;;5001460;28;20441;-61
2022/07/14 00:23:00;;;;;;;2.03;1.93;;;22.90;74.10;;;;;;5006521;28;20214;-61
2022/07/14 00:25:26;;;;;;;3.23;2.03;;;22.90;73.80;;;;;;5002843;28;20452;-62
2022/07/14 00:27:52;;;;;;;3.27;2.23;;;22.80;74.10;;;;;;5009921;28;20890;-63
2022/07/14 00:30:18;;;;;;;1.83;1.67;;;22.90;73.60;;;;;;5009285;28;20245;-62
2022/07/14 00:32:44;;;;;;;2.37;2.10;;;22.90;73.70;;;;;;5010387;28;20469;-61
2022/07/14 00:35:09;;;;;;;2.20;2.00;;;22.80;73.50;;;;;;5004711;28;20616;-61
2022/07/14 00:37:35;;;;;;;4.43;2.43;;;22.80;73.40;;;;;;4992208;28;20215;-61
2022/07/14 00:40:04;;;;;;;2.13;1.90;;;22.70;73.70;;;;;;5008538;28;20457;-61
2022/07/14 00:42:35;;;;;;;2.23;2.00;;;22.60;73.90;;;;;;5010319;28;20256;-61
2022/07/14 00:45:03;;;;;;;2.10;1.90;;;22.70;74.50;;;;;;5011070;28;20437;-61
2022/07/14 00:47:28;;;;;;;2.30;2.10;;;22.60;75.00;;;;;;4992544;28;20433;-61
2022/07/14 00:49:55;;;;;;;1.83;1.70;;;22.50;75.20;;;;;;5007215;28;20450;-62
2022/07/14 00:52:22;;;;;;;2.07;1.80;;;22.50;75.70;;;;;;5010294;28;20683;-61
2022/07/14 00:54:48;;;;;;;2.20;2.10;;;22.40;76.00;;;;;;4994214;28;20437;-61
2022/07/14 00:57:13;;;;;;;2.00;1.90;;;22.40;76.10;;;;;;5010000;28;20771;-62
2022/07/14 00:59:39;;;;;;;3.07;1.80;;;22.40;75.90;;;;;;5008772;28;20276;-61
2022/07/14 01:02:05;;;;;;;1.80;1.70;;;22.40;76.10;;;;;;5010739;28;20237;-61
2022/07/14 01:04:30;;;;;;;2.00;1.90;;;22.20;76.30;;;;;;5001587;28;20633;-59
2022/07/14 01:06:56;;;;;;;3.17;2.20;;;22.20;76.60;;;;;;5010102;28;20604;-59
2022/07/14 01:09:22;;;;;;;2.27;1.97;;;22.20;76.50;;;;;;5010185;28;20277;-60
2022/07/14 01:11:47;;;;;;;2.30;2.10;;;22.20;76.60;;;;;;5007740;28;20671;-60
2022/07/14 01:14:13;;;;;;;6.00;2.53;;;22.10;76.50;;;;;;5002677;28;20442;-61
2022/07/14 01:16:39;;;;;;;2.53;1.90;;;22.10;76.80;;;;;;5009405;28;20563;-59
2022/07/14 01:19:04;;;;;;;2.27;2.17;;;22.20;76.80;;;;;;5007352;28;20215;-59
2022/07/14 01:21:30;;;;;;;2.40;2.20;;;22.10;76.50;;;;;;5009853;28;20217;-61
2022/07/14 01:23:55;;;;;;;2.10;1.90;;;22.10;75.80;;;;;;5004751;28;20707;-61
2022/07/14 01:26:21;;;;;;;1.53;1.43;;;22.10;76.00;;;;;;5001519;28;20202;-61
2022/07/14 01:28:46;;;;;;;2.50;2.17;;;22.00;78.20;;;;;;5000889;28;20290;-60
2022/07/14 01:31:12;;;;;;;2.70;2.07;;;21.80;77.70;;;;;;5004185;28;20215;-61
2022/07/14 01:33:38;;;;;;;2.27;2.00;;;21.90;78.20;;;;;;5009922;28;20187;-60
2022/07/14 01:36:03;;;;;;;3.10;2.10;;;21.80;78.30;;;;;;5006327;28;20202;-60
2022/07/14 01:38:29;;;;;;;2.33;1.80;;;21.70;78.40;;;;;;5009907;28;20986;-61
2022/07/14 01:40:55;;;;;;;2.40;2.20;;;21.70;78.80;;;;;;5006846;28;20186;-60
2022/07/14 01:43:20;;;;;;;2.20;2.00;;;21.50;79.10;;;;;;5006445;28;20245;-60
2022/07/14 01:45:47;;;;;;;2.23;2.03;;;21.50;80.30;;;;;;5001171;28;20198;-60
2022/07/14 01:48:12;;;;;;;2.13;1.92;;;21.50;80.50;;;;;;5001395;28;20537;-60
2022/07/14 01:50:38;;;;;;;2.90;2.50;;;21.40;81.20;;;;;;5008880;28;20206;-60
2022/07/14 01:53:03;;;;;;;2.63;1.90;;;21.20;81.30;;;;;;5010693;28;20215;-60
2022/07/14 01:55:29;;;;;;;2.47;1.90;;;21.10;81.30;;;;;;5008983;28;20656;-60
2022/07/14 01:57:55;;;;;;;4.10;2.20;;;21.00;81.50;;;;;;5012066;28;20268;-61
2022/07/14 02:00:20;;;;;;;2.20;1.80;;;21.00;82.00;;;;;;5011935;28;20179;-62
2022/07/14 02:02:46;;;;;;;3.83;3.00;;;20.90;82.30;;;;;;5013199;28;20360;-62
2022/07/14 02:05:11;;;;;;;2.10;2.00;;;20.80;82.40;;;;;;5007596;28;20663;-61
2022/07/14 02:07:37;;;;;;;2.60;2.00;;;20.70;83.00;;;;;;5012348;28;20647;-61
2022/07/14 02:12:48;;;;;;;2.80;2.42;;;20.60;84.30;;;;;;5009466;28;20277;-61
2022/07/14 02:15:14;;;;;;;2.33;1.57;;;20.50;84.30;;;;;;5013339;28;20214;-61
2022/07/14 02:17:39;;;;;;;2.10;2.00;;;20.40;84.20;;;;;;5012326;28;20667;-60
2022/07/14 02:20:08;;;;;;;2.23;1.60;;;20.30;83.90;;;;;;5009995;28;20183;-60
2022/07/14 02:22:33;;;;;;;2.10;1.90;;;20.20;84.40;;;;;;5012620;28;20215;-60
2022/07/14 02:24:59;;;;;;;2.80;1.93;;;20.10;85.90;;;;;;5012739;28;20183;-61
2022/07/14 02:27:24;;;;;;;1.90;1.80;;;20.00;87.20;;;;;;5011177;28;20193;-61
2022/07/14 02:29:50;;;;;;;1.83;1.73;;;20.00;87.20;;;;;;5008557;28;20190;-61
2022/07/14 02:32:15;;;;;;;2.90;1.83;;;20.00;86.90;;;;;;5012051;28;20235;-61
2022/07/14 02:34:41;;;;;;;2.87;1.57;;;20.00;87.10;;;;;;5007012;28;20215;-61
2022/07/14 02:37:07;;;;;;;2.60;2.00;;;19.90;87.20;;;;;;5011916;28;20273;-60
2022/07/14 02:39:32;;;;;;;2.20;1.83;;;20.00;87.40;;;;;;5012250;28;20210;-60
2022/07/14 02:41:58;;;;;;;2.37;2.17;;;19.90;87.00;;;;;;5009297;28;20260;-60
2022/07/14 02:44:23;;;;;;;1.80;1.70;;;19.80;87.40;;;;;;5009855;28;20179;-60
2022/07/14 02:46:49;;;;;;;1.70;1.60;;;19.70;87.60;;;;;;5010388;28;20206;-58
2022/07/14 02:49:14;;;;;;;1.83;1.73;;;19.70;87.80;;;;;;5007869;28;20218;-61
2022/07/14 02:51:40;;;;;;;3.23;1.83;;;19.70;87.90;;;;;;5011960;28;20203;-60
2022/07/14 02:54:06;;;;;;;1.70;1.60;;;19.70;87.90;;;;;;5004241;28;20584;-61
2022/07/14 02:56:31;;;;;;;2.30;1.80;;;19.60;87.90;;;;;;5011303;28;20229;-61
2022/07/14 02:58:57;;;;;;;2.13;1.90;;;19.60;88.30;;;;;;5010780;28;20239;-59
2022/07/14 03:01:23;;;;;;;2.00;1.90;;;19.60;88.60;;;;;;5006518;28;20207;-59
2022/07/14 03:03:48;;;;;;;2.77;1.93;;;19.50;89.10;;;;;;5003819;28;20242;-58
2022/07/14 03:06:18;;;;;;;2.07;1.87;;;19.50;89.50;;;;;;5000843;28;20447;-58
2022/07/14 03:08:44;;;;;;;2.10;2.00;;;19.40;88.60;;;;;;5009661;28;20644;-58
2022/07/14 03:11:10;;;;;;;2.43;2.03;;;19.30;88.80;;;;;;5011917;28;20225;-59
2022/07/14 03:13:36;;;;;;;4.03;2.00;;;19.20;89.40;;;;;;5010714;28;20504;-59
2022/07/14 03:16:03;;;;;;;2.30;2.10;;;19.10;90.10;;;;;;5012189;28;20684;-59
2022/07/14 03:18:28;;;;;;;2.05;1.95;;;19.10;90.20;;;;;;5012216;28;20430;-60
2022/07/14 03:20:54;;;;;;;1.93;1.80;;;19.10;90.30;;;;;;5004966;28;20198;-59
2022/07/14 03:23:21;;;;;;;1.93;1.83;;;19.20;90.10;;;;;;5010716;28;20202;-60
2022/07/14 03:25:46;;;;;;;2.15;1.85;;;19.20;90.10;;;;;;5012063;28;20194;-59
2022/07/14 03:28:13;;;;;;;1.80;1.70;;;19.20;90.60;;;;;;4992516;28;20180;-62
2022/07/14 03:30:39;;;;;;;3.08;1.58;;;19.10;90.40;;;;;;5011564;28;20182;-62
2022/07/14 03:33:05;;;;;;;1.95;1.85;;;19.00;90.30;;;;;;4990417;28;20446;-62
2022/07/14 03:35:30;;;;;;;1.80;1.70;;;19.00;89.90;;;;;;5009435;28;20554;-62
2022/07/14 03:37:56;;;;;;;2.03;1.80;;;19.00;89.40;;;;;;5011765;28;20297;-61
2022/07/14 03:40:21;;;;;;;1.70;1.60;;;19.00;88.00;;;;;;4998206;28;20183;-62
2022/07/14 03:42:47;;;;;;;1.90;1.80;;;19.10;87.70;;;;;;5008698;28;20213;-62
2022/07/14 03:45:13;;;;;;;6.80;1.70;;;19.10;87.20;;;;;;5007546;28;20198;-62
2022/07/14 03:47:38;;;;;;;2.20;1.77;;;18.70;86.40;;;;;;5011413;28;20171;-62
2022/07/14 03:50:04;;;;;;;2.20;2.00;;;19.10;86.10;;;;;;5010982;28;20182;-62
2022/07/14 03:52:30;;;;;;;2.25;1.60;;;19.10;86.40;;;;;;5011596;28;20232;-62
2022/07/14 03:54:56;;;;;;;1.90;1.70;;;19.20;86.20;;;;;;5010821;28;20198;-62
2022/07/14 03:57:22;;;;;;;2.00;1.80;;;19.20;86.00;;;;;;5010547;28;20234;-62
2022/07/14 03:59:48;;;;;;;3.43;1.93;;;19.20;85.80;;;;;;5009979;28;20434;-62
2022/07/14 04:02:13;;;;;;;2.08;1.88;;;19.20;85.80;;;;;;4991868;28;20202;-62
2022/07/14 04:04:40;;;;;;;2.00;1.90;;;19.20;85.80;;;;;;5009818;28;20241;-62
2022/07/14 04:07:07;;;;;;;2.10;1.90;;;19.20;85.80;;;;;;5007693;28;20206;-62
2022/07/14 04:09:33;;;;;;;3.03;2.60;;;19.20;86.50;;;;;;5018586;28;20635;-62
2022/07/14 04:11:58;;;;;;;3.20;2.93;;;19.30;86.40;;;;;;5004898;28;20223;-62
2022/07/14 04:14:24;;;;;;;2.70;1.93;;;19.30;86.70;;;;;;5008211;28;20186;-62
2022/07/14 04:16:51;;;;;;;2.87;1.93;;;19.40;87.30;;;;;;5008910;28;20301;-61
2022/07/14 04:19:16;;;;;;;3.30;2.28;;;19.50;86.60;;;;;;5001063;28;20518;-62
2022/07/14 04:21:42;;;;;;;2.43;2.13;;;19.40;86.60;;;;;;5010071;28;20565;-62
2022/07/14 04:24:07;;;;;;;1.83;1.67;;;19.50;87.10;;;;;;5009821;28;20175;-62
2022/07/14 04:26:33;;;;;;;2.70;1.80;;;19.50;87.00;;;;;;5004346;28;20186;-62
2022/07/14 04:28:59;;;;;;;3.00;1.80;;;19.90;88.30;;;;;;5001723;28;20245;-62
2022/07/14 04:31:24;;;;;;;1.90;1.80;;;19.50;86.30;;;;;;5006797;28;20203;-62
2022/07/14 04:33:50;;;;;;;2.17;1.97;;;19.50;86.80;;;;;;5001976;28;20541;-62
2022/07/14 04:36:16;;;;;;;2.43;2.07;;;19.40;88.20;;;;;;5001693;28;20300;-62
2022/07/14 04:38:42;;;;;;;3.60;2.80;;;19.30;87.60;;;;;;5003877;28;20671;-62
2022/07/14 04:41:07;;;;;;;3.03;2.83;;;19.20;87.90;;;;;;5006577;28;20230;-59
2022/07/14 04:43:33;;;;;;;4.70;2.43;;;19.20;88.20;;;;;;5001514;28;20648;-57
2022/07/14 04:45:59;;;;;;;2.20;2.10;;;19.30;88.90;;;;;;5006440;28;20192;-59
2022/07/14 04:48:24;;;;;;;2.23;1.93;;;19.40;88.40;;;;;;5009600;28;20175;-59
2022/07/14 04:53:39;;;;;;;3.63;2.30;;;19.30;88.60;;;;;;5007556;28;20480;-61
2022/07/14 04:56:04;;;;;;;2.22;2.10;;;19.40;88.90;;;;;;5014156;28;20275;-60
2022/07/14 04:58:31;;;;;;;3.70;2.50;;;19.40;89.90;;;;;;5007457;28;20605;-61
2022/07/14 05:01:00;;;;;;;1.90;1.80;;;19.30;89.60;;;;;;5012102;28;20182;-58
2022/07/14 05:03:26;;;;;;;2.53;2.20;;;19.50;89.80;;;;;;5015050;28;20190;-63
2022/07/14 05:05:52;;;;;;;2.30;2.10;;;19.60;89.70;;;;;;5008920;28;20191;-59
2022/07/14 05:08:17;;;;;;;2.20;2.00;;;19.60;89.90;;;;;;5008143;28;20242;-56
2022/07/14 05:10:43;;;;;;;3.43;2.83;;;19.70;90.20;;;;;;5009685;28;20191;-57
2022/07/14 05:13:09;;;;;;;2.37;2.27;;;19.70;88.40;;;;;;5009925;28;20202;-58
2022/07/14 05:15:34;;;;;;;4.60;2.30;;;19.90;89.30;;;;;;5013443;28;20594;-57
2022/07/14 05:18:00;;;;;;;2.57;2.37;;;20.10;89.00;;;;;;5008248;28;20221;-59
2022/07/14 05:20:25;;;;;;;2.30;2.10;;;20.20;87.00;;;;;;5008707;28;20175;-60
2022/07/14 05:22:51;;;;;;;3.10;2.13;;;20.30;88.40;;;;;;5007017;28;20237;-59
2022/07/14 05:25:17;;;;;;;2.93;2.63;;;20.40;87.60;;;;;;4993254;28;20663;-61
2022/07/14 05:27:44;;;;;;;2.10;2.00;;;19.90;86.40;;;;;;5013078;28;20182;-60
2022/07/14 05:30:10;;;;;;;4.05;2.25;;;20.40;86.80;;;;;;5008585;28;20186;-61
2022/07/14 05:32:37;;;;;;;3.10;2.13;;;20.40;86.50;;;;;;5006511;28;20223;-59
2022/07/14 05:35:05;;;;;;;2.20;1.80;;;20.90;86.70;;;;;;5007032;28;20757;-60
2022/07/14 05:37:30;;;;;;;3.58;2.00;;;20.60;86.00;;;;;;5006597;28;20261;-57
2022/07/14 05:39:56;;;;;;;2.37;2.10;;;20.80;86.10;;;;;;5009196;28;20191;-57
2022/07/14 05:42:22;;;;;;;2.70;1.93;;;21.00;87.00;;;;;;5010683;28;20206;-59
2022/07/14 05:44:49;;;;;;;2.85;1.85;;;21.20;86.30;;;;;;5009593;28;20210;-59
2022/07/14 05:47:14;;;;;;;6.10;2.17;;;21.40;85.60;;;;;;5011330;28;20183;-59
2022/07/14 05:49:41;;;;;;;3.30;2.33;;;21.50;85.40;;;;;;5011781;28;20194;-60
2022/07/14 05:52:10;;;;;;;3.28;2.97;;;21.70;84.70;;;;;;5014613;28;20464;-59
2022/07/14 05:54:35;;;;;;;2.83;2.50;;;21.80;83.80;;;;;;5006641;28;20198;-59
2022/07/14 05:57:01;;;;;;;2.83;2.50;;;21.90;82.70;;;;;;5008442;28;20556;-59
2022/07/14 05:59:26;;;;;;;6.00;5.50;;;21.90;82.10;;;;;;5010084;28;20218;-59
2022/07/14 06:01:52;;;;;;;3.63;3.03;;;22.00;82.00;;;;;;5001342;28;20411;-59
2022/07/14 06:04:18;;;;;;;4.07;2.63;;;22.10;81.90;;;;;;5005585;28;20668;-59
2022/07/14 06:06:51;;;;;;;3.33;2.27;;;22.30;81.40;;;;;;5010922;28;20590;-59
2022/07/14 06:09:21;;;;;;;1.90;1.80;;;22.40;80.40;;;;;;5011745;28;20187;-59
2022/07/14 06:11:47;;;;;;;2.30;2.07;;;22.60;78.20;;;;;;5010574;28;20457;-60
2022/07/14 06:14:14;;;;;;;3.40;2.20;;;22.30;79.40;;;;;;4993858;28;20891;-59
2022/07/14 06:16:40;;;;;;;2.50;2.30;;;23.00;78.70;;;;;;5010423;28;20203;-59
2022/07/14 06:19:06;;;;;;;4.63;3.33;;;23.20;79.00;;;;;;5008911;28;20484;-59
2022/07/14 06:21:31;;;;;;;2.73;2.53;;;23.50;78.00;;;;;;5005098;28;20273;-59
2022/07/14 06:23:57;;;;;;;2.87;2.60;;;23.80;76.20;;;;;;5012090;28;20803;-59
2022/07/14 06:26:23;;;;;;;5.00;2.63;;;24.00;74.00;;;;;;5009792;28;20268;-59
2022/07/14 06:28:48;;;;;;;4.70;4.30;;;24.30;75.00;;;;;;5000864;28;20302;-60
2022/07/14 06:31:14;;;;;;;4.63;3.40;;;24.60;74.60;;;;;;5010512;28;20218;-59
2022/07/14 06:33:40;;;;;;;5.20;3.20;;;24.80;74.10;;;;;;5010863;28;20195;-59
2022/07/14 06:36:08;;;;;;;2.95;2.75;;;25.00;75.00;;;;;;4969180;28;1054866;-59
2022/07/14 06:38:34;;;;;;;2.70;2.50;;;25.20;74.50;;;;;;5011864;28;20184;-60
2022/07/14 06:41:00;;;;;;;3.27;3.07;;;25.40;74.20;;;;;;5014065;28;20456;-59
2022/07/14 06:43:26;;;;;;;4.53;3.33;;;25.60;71.40;;;;;;5006656;28;20435;-59
2022/07/14 06:45:51;;;;;;;3.80;3.50;;;25.80;69.90;;;;;;5010876;28;20198;-58
2022/07/14 06:48:17;;;;;;;4.60;4.30;;;26.10;70.50;;;;;;4993781;28;20190;-59
2022/07/14 06:50:44;;;;;;;4.20;3.80;;;26.30;68.80;;;;;;5009242;28;20250;-57
2022/07/14 06:53:10;;;;;;;5.00;3.47;;;26.50;68.20;;;;;;5010975;28;20556;-58
2022/07/14 06:55:35;;;;;;;4.20;3.80;;;26.70;67.60;;;;;;5011051;28;20521;-58
2022/07/14 06:58:01;;;;;;;13.07;5.00;;;27.00;67.10;;;;;;5007128;28;20218;-59
2022/07/14 07:00:26;;;;;;;7.90;4.43;;;27.10;65.70;;;;;;5011061;28;20237;-58
2022/07/14 07:02:52;;;;;;;3.37;2.90;;;27.20;64.90;;;;;;5010746;28;20217;-58
2022/07/14 07:08:02;;;;;;;3.13;2.93;;;27.70;61.30;;;;;;5011136;28;20198;-59
2022/07/14 07:10:28;;;;;;;5.57;3.00;;;28.60;59.50;;;;;;5011192;28;20436;-58
2022/07/14 07:12:54;;;;;;;4.70;3.37;;;30.10;57.20;;;;;;5005081;28;20211;-59
2022/07/14 07:15:20;;;;;;;3.80;2.60;;;31.70;55.60;;;;;;5008254;28;20250;-59
2022/07/14 07:17:45;;;;;;;3.70;2.60;;;33.60;49.70;;;;;;5003404;28;20214;-63
2022/07/14 07:20:12;;;;;;;3.90;3.60;;;35.50;47.80;;;;;;5009089;28;20474;-62
2022/07/14 07:22:38;;;;;;;4.20;3.00;;;37.70;43.40;;;;;;5004804;28;20230;-63
2022/07/14 07:25:05;;;;;;;5.07;3.13;;;38.40;39.60;;;;;;5003835;28;20465;-66
2022/07/14 07:27:31;;;;;;;3.17;2.30;;;39.20;38.30;;;;;;5002192;28;20513;-66
2022/07/14 07:30:01;;;;;;;6.10;5.47;;;40.90;36.00;;;;;;4987849;28;20859;-64
2022/07/14 07:32:27;;;;;;;4.77;3.20;;;42.50;33.00;;;;;;5012419;28;20913;-61
2022/07/14 07:34:54;;;;;;;7.40;3.00;;;42.10;31.80;;;;;;5004372;28;20468;-61
2022/07/14 07:37:19;;;;;;;4.87;2.80;;;41.90;32.00;;;;;;5003635;28;20556;-59
2022/07/14 07:39:45;;;;;;;3.73;2.70;;;41.70;32.60;;;;;;5008115;28;20529;-60
2022/07/14 07:42:10;;;;;;;3.10;2.40;;;40.60;32.50;;;;;;5009639;28;20218;-60
2022/07/14 07:44:36;;;;;;;3.40;2.60;;;40.20;32.80;;;;;;5010913;28;20191;-60
2022/07/14 07:47:02;;;;;;;2.80;2.60;;;40.10;33.50;;;;;;5003413;28;20187;-60
2022/07/14 07:49:28;;;;;;;3.07;2.87;;;40.30;33.30;;;;;;5010003;28;20633;-60
2022/07/14 07:51:58;;;;;;;4.77;2.60;;;40.10;33.70;;;;;;5010291;28;20456;-60
2022/07/14 07:54:24;;;;;;;4.60;3.63;;;41.00;33.30;;;;;;5010377;28;20182;-61
2022/07/14 07:56:50;;;;;;;5.77;3.00;;;41.70;32.00;;;;;;5010602;28;20465;-64
2022/07/14 07:59:16;;;;;;;2.70;2.50;;;42.90;30.70;;;;;;5003962;28;20453;-62
2022/07/14 08:01:41;;;;;;;3.37;2.70;;;43.20;27.20;;;;;;5010272;28;20344;-61
2022/07/14 08:04:08;;;;;;;3.27;1.87;;;42.00;27.10;;;;;;5008934;28;20429;-60
2022/07/14 08:06:35;;;;;;;2.30;1.90;;;41.40;27.20;;;;;;5001694;28;20193;-60
2022/07/14 08:09:02;;;;;;;4.20;2.77;;;42.70;27.00;;;;;;5011201;28;20520;-59
2022/07/14 08:11:28;;;;;;;3.67;2.10;;;44.00;26.60;;;;;;5010891;28;20476;-60
2022/07/14 08:13:53;;;;;;;2.83;2.10;;;44.20;25.20;;;;;;5008427;28;20457;-60
2022/07/14 08:16:19;;;;;;;4.00;2.40;;;44.90;24.70;;;;;;5010706;28;20989;-60
2022/07/14 08:18:45;;;;;;;4.70;2.47;;;44.40;24.50;;;;;;5010809;28;20586;-61
2022/07/14 08:21:11;;;;;;;3.30;2.87;;;43.80;25.00;;;;;;5001946;28;20242;-61
2022/07/14 08:23:36;;;;;;;4.43;2.83;;;44.50;24.60;;;;;;5011470;28;20973;-60
2022/07/14 08:26:02;;;;;;;4.23;3.93;;;45.40;24.30;;;;;;5010252;28;20198;-60
2022/07/14 08:28:27;;;;;;;5.63;3.30;;;45.10;24.30;;;;;;5005485;28;20266;-61
2022/07/14 08:30:53;;;;;;;3.00;1.90;;;44.80;24.60;;;;;;5000463;28;20636;-60
2022/07/14 08:33:18;;;;;;;2.73;2.20;;;43.70;24.70;;;;;;5010506;28;20233;-60
2022/07/14 08:35:47;;;;;;;2.90;1.80;;;43.40;25.00;;;;;;5009402;28;20644;-60
2022/07/14 08:38:12;;;;;;;3.00;2.27;;;41.90;25.30;;;;;;5008514;28;20633;-60
2022/07/14 08:40:38;;;;;;;2.10;1.90;;;42.20;25.60;;;;;;5010570;28;20442;-60
2022/07/14 08:43:05;;;;;;;2.13;2.03;;;41.60;26.10;;;;;;5010311;28;20592;-59
2022/07/14 08:45:39;;;;;;;3.43;3.13;;;41.30;26.90;;;;;;5004744;28;20524;-60
2022/07/14 08:48:05;;;;;;;4.30;4.10;;;40.20;26.40;;;;;;5009621;28;20422;-60
2022/07/14 08:50:32;;;;;;;3.13;2.53;;;41.00;26.70;;;;;;4998097;28;20450;-60
2022/07/14 08:53:04;;;;;;;2.20;2.00;;;42.10;25.80;;;;;;5009961;28;20472;-60
2022/07/14 08:55:30;;;;;;;2.87;2.67;;;42.10;25.70;;;;;;5005509;28;20446;-60
2022/07/14 08:57:56;;;;;;;3.20;2.90;;;42.50;25.50;;;;;;5009288;28;20987;-61
2022/07/14 09:00:22;;;;;;;3.13;2.17;;;44.00;24.70;;;;;;5003169;28;20437;-60
2022/07/14 09:02:53;;;;;;;4.67;4.27;;;44.30;23.90;;;;;;5009891;28;20285;-62
2022/07/14 09:05:19;;;;;;;3.30;3.10;;;45.10;23.80;;;;;;4998414;28;20184;-60
2022/07/14 09:07:44;;;;;;;4.37;4.07;;;45.20;23.10;;;;;;4991999;28;20942;-61
2022/07/14 09:10:11;;;;;;;2.90;2.70;;;45.40;23.10;;;;;;5009454;28;20270;-61
2022/07/14 09:12:37;;;;;;;2.67;2.47;;;46.00;22.80;;;;;;5009175;28;20699;-61
2022/07/14 09:18:02;;;;;;;4.20;3.43;;;47.10;22.60;;;;;;5009718;28;20530;-61
2022/07/14 09:20:33;;;;;;;6.00;2.60;;;47.60;21.70;;;;;;5002179;28;20445;-61
2022/07/14 09:23:04;;;;;;;3.33;2.80;;;47.30;22.00;;;;;;5010230;28;20496;-60
2022/07/14 09:25:31;;;;;;;3.70;2.53;;;47.40;21.20;;;;;;4988871;28;20447;-60
2022/07/14 09:27:57;;;;;;;2.20;1.90;;;47.00;21.30;;;;;;5002146;28;20434;-62
2022/07/14 09:30:24;;;;;;;2.10;1.90;;;47.50;21.10;;;;;;5009275;28;20918;-60
2022/07/14 09:32:56;;;;;;;2.63;2.10;;;46.50;21.10;;;;;;5011503;28;20453;-59
2022/07/14 09:35:43;;;;;;;2.70;2.30;;;45.70;21.70;;;;;;5008584;28;20861;-60
2022/07/14 09:38:20;;;;;;;14.50;6.03;;;45.60;22.00;;;;;;5007749;28;20473;-60
2022/07/14 09:40:47;;;;;;;3.00;1.80;;;45.80;22.00;;;;;;5009388;28;20957;-61
2022/07/14 09:43:13;;;;;;;2.07;1.97;;;45.20;21.80;;;;;;5007949;28;20444;-61
2022/07/14 09:45:46;;;;;;;3.20;2.20;;;45.00;21.90;;;;;;5000217;28;20923;-61
2022/07/14 09:48:14;;;;;;;2.57;2.37;;;45.40;21.80;;;;;;4998038;28;20988;-61
2022/07/14 09:50:51;;;;;;;2.47;2.27;;;46.70;21.30;;;;;;4991017;28;21029;-62
2022/07/14 09:53:31;;;;;;;2.43;2.23;;;47.50;20.40;;;;;;5009399;28;20930;-62
2022/07/14 09:56:01;;;;;;;3.63;3.30;;;47.90;20.30;;;;;;5003830;28;20429;-61
2022/07/14 09:58:29;;;;;;;2.70;2.07;;;48.30;19.90;;;;;;5002502;28;20476;-62
2022/07/14 10:00:58;;;;;;;2.53;2.33;;;48.00;19.30;;;;;;5011656;28;20441;-62
2022/07/14 10:03:26;;;;;;;3.47;2.40;;;48.20;19.90;;;;;;5012515;28;20446;-61
2022/07/14 10:05:54;;;;;;;2.27;2.07;;;47.90;19.30;;;;;;5012566;28;20446;-62
2022/07/14 10:08:29;;;;;;;2.60;2.40;;;46.00;19.90;;;;;;5013306;28;20464;-61
2022/07/14 10:10:57;;;;;;;2.20;2.00;;;44.30;21.10;;;;;;5012344;28;20510;-60
2022/07/14 10:13:24;;;;;;;2.00;1.90;;;43.60;22.20;;;;;;5007049;28;20466;-60
2022/07/14 10:15:51;;;;;;;2.40;2.20;;;43.50;22.30;;;;;;5034112;22;20500;-83
2022/07/14 10:18:18;;;;;;;4.20;2.80;;;44.40;22.00;;;;;;5022529;28;20594;-84
2022/07/14 10:20:49;;;;;;;2.10;1.90;;;45.40;21.50;;;;;;5012551;28;20502;-84
2022/07/14 10:23:17;;;;;;;3.00;2.70;;;45.40;21.30;;;;;;5025782;28;20433;-84
2022/07/14 10:25:46;;;;;;;3.10;2.47;;;45.40;21.10;;;;;;5032946;28;20929;-84
2022/07/14 10:28:13;;;;;;;2.47;2.27;;;45.40;21.00;;;;;;5023213;28;21245;-84
2022/07/14 10:31:00;;;;;;;1.87;1.77;;;44.80;20.80;;;;;;5021964;28;20472;-83
2022/07/14 10:33:47;;;;;;;2.17;1.97;;;44.10;20.80;;;;;;5031061;28;20440;-84
2022/07/14 10:36:48;;;;;;;2.50;2.40;;;43.60;21.50;;;;;;5007180;28;20484;-83
2022/07/14 10:39:35;;;;;;;5.60;5.17;;;42.40;22.40;;;;;;4974626;28;20433;-82
2022/07/14 10:42:21;;;;;;;5.07;4.70;;;41.80;22.90;;;;;;5010048;28;20520;-81
2022/07/14 10:44:47;;;;;;;3.33;2.83;;;41.00;23.40;;;;;;5017531;28;20450;-82
2022/07/14 10:47:15;;;;;;;2.10;2.00;;;40.90;23.50;;;;;;4994323;28;20884;-81
2022/07/14 10:50:10;;;;;;;3.63;2.00;;;41.20;22.90;;;;;;5005247;28;20470;-81
2022/07/14 10:52:50;;;;;;;4.70;4.00;;;41.10;22.90;;;;;;5007057;28;20443;-81
2022/07/14 10:55:28;;;;;;;4.00;2.10;;;40.70;23.60;;;;;;5007547;28;20444;-82
2022/07/14 10:57:59;;;;;;;4.27;3.50;;;40.90;23.40;;;;;;5009812;28;20477;-81
2022/07/14 11:00:43;;;;;;;6.23;3.30;;;40.80;23.30;;;;;;5011314;28;20444;-82
2022/07/14 11:03:25;;;;;;;2.30;2.17;;;41.20;23.20;;;;;;5001445;28;20430;-82
2022/07/14 11:06:09;;;;;;;2.07;1.97;;;41.60;22.40;;;;;;5006669;28;20472;-82
2022/07/14 11:09:13;;;;;;;3.97;2.60;;;41.20;22.50;;;;;;5008386;28;20446;-82
2022/07/14 11:12:11;;;;;;;2.37;2.27;;;42.70;22.10;;;;;;4995623;28;20449;-81
2022/07/14 11:14:42;;;;;;;3.20;2.20;;;42.80;21.80;;;;;;5006468;28;20489;-81
2022/07/14 11:17:08;;;;;;;2.40;2.30;;;43.30;21.70;;;;;;5010279;28;20985;-81
2022/07/14 11:19:37;;;;;;;2.83;2.70;;;43.80;21.40;;;;;;5007952;28;20446;-82
2022/07/14 11:22:19;;;;;;;2.67;2.40;;;44.00;21.20;;;;;;5003839;28;20438;-82
2022/07/14 11:24:46;;;;;;;6.37;2.37;;;43.90;21.10;;;;;;5015611;28;20436;-81
2022/07/14 11:27:30;;;;;;;5.70;2.67;;;42.90;21.60;;;;;;5007390;28;20466;-81
2022/07/14 11:29:57;;;;;;;2.83;2.20;;;42.80;22.10;;;;;;5013829;28;20442;-81
2022/07/14 11:32:32;;;;;;;3.30;2.00;;;41.40;22.80;;;;;;5011609;28;20472;-81
2022/07/14 11:38:00;;;;;;;2.57;2.03;;;41.60;23.10;;;;;;5007398;28;20484;-83
2022/07/14 11:40:45;;;;;;;4.93;2.47;;;42.70;23.60;;;;;;5013821;28;20430;-83
2022/07/14 11:43:29;;;;;;;3.90;3.50;;;42.80;22.60;;;;;;5010490;28;20430;-81
2022/07/14 11:46:00;;;;;;;3.73;2.23;;;42.40;23.40;;;;;;5011530;28;20442;-82
2022/07/14 11:48:31;;;;;;;6.10;3.90;;;42.30;23.10;;;;;;5010670;28;20520;-82
2022/07/14 11:51:16;;;;;;;3.63;2.90;;;41.60;23.20;;;;;;5023735;28;20483;-83
2022/07/14 11:53:42;;;;;;;4.57;3.77;;;41.40;23.30;;;;;;5032657;28;20452;-82
2022/07/14 11:56:09;;;;;;;3.00;2.77;;;41.10;23.10;;;;;;5010046;28;20433;-81
2022/07/14 11:58:37;;;;;;;3.83;2.50;;;40.90;23.60;;;;;;5006405;28;20511;-82
2022/07/14 12:01:03;;;;;;;2.50;2.30;;;40.50;23.80;;;;;;5012969;28;20441;-82
2022/07/14 12:03:29;;;;;;;2.87;2.67;;;40.00;24.40;;;;;;5009055;28;20438;-82
2022/07/14 12:05:57;;;;;;;2.63;2.50;;;39.30;25.20;;;;;;5003671;28;20436;-82
2022/07/14 12:08:36;;;;;;;5.47;3.70;;;39.00;26.10;;;;;;5007446;28;20191;-81
2022/07/14 12:11:04;;;;;;;5.47;3.20;;;39.40;28.20;;;;;;5008680;28;20457;-80
2022/07/14 12:13:31;;;;;;;4.60;2.87;;;37.60;27.70;;;;;;5015795;28;20504;-81
2022/07/14 12:16:02;;;;;;;2.60;2.40;;;37.10;28.20;;;;;;5017858;28;20479;-81
2022/07/14 12:18:34;;;;;;;4.43;2.63;;;36.90;28.40;;;;;;5027287;28;20441;-81
2022/07/14 12:21:00;;;;;;;3.87;2.70;;;36.60;27.90;;;;;;5010698;28;20436;-81
2022/07/14 12:23:27;;;;;;;3.50;2.77;;;36.40;28.20;;;;;;5008852;28;20437;-81
2022/07/14 12:25:53;;;;;;;3.53;2.70;;;36.20;28.40;;;;;;5011332;28;20187;-81
2022/07/14 12:28:21;;;;;;;2.20;2.10;;;36.00;28.40;;;;;;5005007;28;20494;-81
2022/07/14 12:30:53;;;;;;;3.27;2.60;;;35.90;28.30;;;;;;5003600;28;20867;-81
2022/07/14 12:33:22;;;;;;;2.23;2.10;;;36.30;28.20;;;;;;5015224;28;20948;-81
2022/07/14 12:35:51;;;;;;;5.73;3.00;;;36.40;28.30;;;;;;5004539;28;20545;-81
2022/07/14 12:38:17;;;;;;;8.43;3.33;;;36.50;28.40;;;;;;5008520;28;20496;-83
2022/07/14 12:40:48;;;;;;;4.10;2.50;;;36.60;28.20;;;;;;5006097;28;20549;-83
2022/07/14 12:43:13;;;;;;;2.67;2.20;;;36.90;27.60;;;;;;5013374;28;20444;-81
2022/07/14 12:46:03;;;;;;;2.30;2.10;;;36.60;27.50;;;;;;5006441;28;20460;-82
2022/07/14 12:48:30;;;;;;;4.80;2.20;;;36.80;27.60;;;;;;5008014;28;20194;-81
2022/07/14 12:51:14;;;;;;;4.20;1.90;;;36.80;27.70;;;;;;5006718;28;20477;-82
2022/07/14 12:53:55;;;;;;;2.37;2.27;;;36.80;27.10;;;;;;5015232;28;20448;-81
2022/07/14 12:56:22;;;;;;;3.70;2.40;;;36.50;27.40;;;;;;5010822;28;20471;-81
2022/07/14 12:58:48;;;;;;;3.80;2.40;;;36.30;27.40;;;;;;5005744;28;20477;-80
2022/07/14 13:01:13;;;;;;;2.40;2.20;;;36.30;27.60;;;;;;5009410;28;20501;-80
2022/07/14 13:03:39;;;;;;;2.53;2.30;;;36.30;27.80;;;;;;5007745;28;20183;-81